Time;durP1;ratioP1;P1;durP2;ratioP2;P2;SDS_P1;SDS_P2;PMS_P1;PMS_P2;Temp;Humidity;BMP_temperature;BMP_pressure;BME280_temperature;BME280_humidity;BME280_pressure;Samples;Min_cycle;Max_cycle;Signal;HPM_P1;HPM_P2
2021/05/25 00:00:56;;;;;;;16.83;15.00;;;;;;;13.48;98.35;100524.84;5154982;27;20039;-75
2021/05/25 00:04:01;;;;;;;17.48;15.60;;;;;;;13.44;98.36;100528.00;5154913;27;20046;-75
2021/05/25 00:07:05;;;;;;;18.70;15.05;;;;;;;13.40;98.35;100529.31;5142908;27;20043;-75
2021/05/25 00:10:11;;;;;;;19.98;16.70;;;;;;;13.35;98.53;100531.59;5155833;27;20043;-79
2021/05/25 00:13:15;;;;;;;20.45;15.18;;;;;;;13.35;98.45;100527.06;5155790;27;20038;-78
2021/05/25 00:16:20;;;;;;;18.40;15.52;;;;;;;13.28;98.48;100522.41;5155552;27;20473;-75
2021/05/25 00:19:24;;;;;;;20.67;15.15;;;;;;;13.30;98.57;100523.09;5155770;27;20047;-77
2021/05/25 00:22:30;;;;;;;16.65;14.85;;;;;;;13.20;98.57;100523.16;5142743;27;20035;-76
2021/05/25 00:25:35;;;;;;;25.92;16.48;;;;;;;13.12;98.73;100524.88;5155361;27;20039;-80
2021/05/25 00:28:39;;;;;;;21.45;15.43;;;;;;;13.15;98.82;100517.34;5155450;27;20047;-75
2021/05/25 00:31:43;;;;;;;22.52;15.93;;;;;;;13.12;99.23;100523.03;5156269;27;20046;-75
2021/05/25 00:34:48;;;;;;;19.17;15.18;;;;;;;13.11;98.83;100525.88;5142733;27;20381;-76
2021/05/25 00:37:53;;;;;;;20.92;15.40;;;;;;;13.09;98.81;100515.22;5155315;27;20043;-76
2021/05/25 00:40:57;;;;;;;19.52;15.00;;;;;;;13.11;98.68;100525.88;5155385;27;20051;-78
2021/05/25 00:44:04;;;;;;;20.20;16.02;;;;;;;13.02;98.78;100509.56;5155213;27;20051;-76
2021/05/25 00:47:08;;;;;;;20.80;15.55;;;;;;;12.97;98.86;100509.13;5142467;27;20042;-76
2021/05/25 00:50:17;;;;;;;18.95;14.75;;;;;;;12.88;98.45;100514.56;5145583;27;20042;-76
2021/05/25 00:53:22;;;;;;;21.40;16.38;;;;;;;12.85;98.30;100498.66;5159222;27;20385;-76
2021/05/25 00:56:26;;;;;;;20.98;15.43;;;;;;;12.82;98.71;100488.19;5145763;27;20043;-74
2021/05/25 00:59:31;;;;;;;21.25;15.85;;;;;;;12.81;98.72;100494.59;5159199;27;20042;-75
2021/05/25 01:02:37;;;;;;;18.15;16.25;;;;;;;12.78;98.02;100501.09;5159041;27;20035;-74
2021/05/25 01:05:42;;;;;;;20.92;16.52;;;;;;;12.67;98.10;100501.25;5155104;27;20477;-75
2021/05/25 01:08:47;;;;;;;17.60;15.57;;;;;;;12.53;97.61;100504.41;5138190;27;20043;-74
2021/05/25 01:11:52;;;;;;;18.55;14.73;;;;;;;12.47;97.71;100502.28;5138147;27;20035;-74
2021/05/25 01:15:02;;;;;;;20.15;16.70;;;;;;;12.38;98.15;100516.59;5138001;27;20043;-76
2021/05/25 01:18:07;;;;;;;17.73;15.32;;;;;;;12.26;98.30;100521.28;5125331;27;20465;-74
2021/05/25 01:21:13;;;;;;;21.00;15.70;;;;;;;12.35;98.21;100516.88;5138002;27;20462;-77
2021/05/25 01:24:17;;;;;;;17.92;14.57;;;;;;;12.35;97.87;100516.88;5137878;27;20389;-75
2021/05/25 01:27:22;;;;;;;17.73;14.93;;;;;;;12.36;97.93;100508.69;5125211;27;20035;-75
2021/05/25 01:30:31;;;;;;;18.50;15.38;;;;;;;12.33;98.15;100511.66;5137745;27;20039;-75
2021/05/25 01:33:37;;;;;;;20.15;15.93;;;;;;;12.28;97.79;100503.16;5137680;27;20035;-74
2021/05/25 01:36:44;;;;;;;19.83;15.35;;;;;;;12.33;97.93;100497.34;5124995;27;20039;-74
2021/05/25 01:39:53;;;;;;;18.40;15.23;;;;;;;12.35;97.85;100509.66;5137647;27;20051;-75
2021/05/25 01:43:01;;;;;;;16.83;15.00;;;;;;;12.39;98.33;100519.13;5137559;27;20039;-76
2021/05/25 01:46:06;;;;;;;20.35;14.40;;;;;;;12.40;98.04;100520.00;5137217;27;20039;-75
2021/05/25 01:49:13;;;;;;;20.77;15.80;;;;;;;12.35;98.12;100517.72;5139523;27;20042;-74
2021/05/25 01:52:19;;;;;;;19.48;16.65;;;;;;;12.28;97.59;100519.28;5153134;27;20046;-76
2021/05/25 01:55:07;;;;;;;18.15;16.25;;;;;;;12.24;97.52;100525.97;5145660;27;20482;-75
2021/05/25 01:57:58;;;;;;;16.92;14.95;;;;;;;12.26;97.42;100532.03;5144117;27;20043;-74
2021/05/25 02:01:08;;;;;;;18.85;16.40;;;;;;;12.33;97.33;100526.94;5136435;27;20031;-76
2021/05/25 02:04:12;;;;;;;19.30;16.50;;;;;;;12.34;96.75;100528.66;5137063;27;20462;-76
2021/05/25 02:07:20;;;;;;;21.00;16.15;;;;;;;12.34;96.83;100532.16;5137003;27;20043;-75
2021/05/25 02:10:27;;;;;;;19.27;15.82;;;;;;;12.38;96.56;100530.06;5137007;27;20043;-74
2021/05/25 02:13:36;;;;;;;23.70;15.60;;;;;;;12.23;96.33;100529.63;5137047;27;20047;-74
2021/05/25 02:16:40;;;;;;;16.33;14.63;;;;;;;12.24;96.50;100536.72;5136940;27;20043;-75
2021/05/25 02:19:44;;;;;;;18.77;14.63;;;;;;;12.18;96.53;100531.03;5136637;27;20039;-75
2021/05/25 02:22:49;;;;;;;16.92;14.82;;;;;;;12.12;97.00;100518.16;5124427;27;20043;-74
2021/05/25 02:25:54;;;;;;;17.95;14.73;;;;;;;12.13;96.78;100522.53;5136163;27;20044;-74
2021/05/25 02:28:58;;;;;;;17.50;14.95;;;;;;;12.10;96.95;100515.59;5136384;27;20043;-74
2021/05/25 02:32:03;;;;;;;19.52;14.65;;;;;;;12.13;97.37;100518.00;5136567;27;20043;-74
2021/05/25 02:35:08;;;;;;;16.40;13.77;;;;;;;12.25;96.75;100514.19;5136566;27;20201;-74
2021/05/25 02:38:14;;;;;;;18.98;13.75;;;;;;;12.31;97.01;100505.56;5136483;27;20044;-76
2021/05/25 02:41:19;;;;;;;17.13;13.75;;;;;;;12.18;96.95;100504.13;5136427;27;20047;-75
2021/05/25 02:44:24;;;;;;;16.13;13.38;;;;;;;12.13;96.83;100517.16;5136245;27;20051;-75
2021/05/25 02:47:28;;;;;;;17.70;14.48;;;;;;;12.14;97.12;100518.88;5136246;27;20043;-75
2021/05/25 02:50:34;;;;;;;18.27;13.68;;;;;;;12.18;96.92;100518.44;5136229;27;20043;-75
2021/05/25 02:53:38;;;;;;;16.73;13.68;;;;;;;12.21;97.20;100520.00;5136102;27;20474;-74
2021/05/25 02:56:42;;;;;;;15.43;13.63;;;;;;;12.22;96.99;100522.53;5122763;27;20043;-74
2021/05/25 02:59:47;;;;;;;19.50;13.43;;;;;;;12.20;96.47;100513.75;5136023;27;20047;-74
2021/05/25 03:02:52;;;;;;;15.23;12.20;;;;;;;12.29;96.81;100518.28;5135603;27;20051;-78
2021/05/25 03:05:56;;;;;;;16.45;13.77;;;;;;;12.33;96.86;100511.66;5123020;27;20047;-77
2021/05/25 03:09:01;;;;;;;19.15;13.10;;;;;;;12.30;96.32;100509.22;5136149;27;20035;-75
2021/05/25 03:12:05;;;;;;;19.38;12.25;;;;;;;12.28;95.90;100504.97;5122403;27;20031;-75
2021/05/25 03:15:13;;;;;;;15.45;12.57;;;;;;;12.14;96.09;100508.09;5135761;27;20039;-75
2021/05/25 03:18:18;;;;;;;21.77;13.55;;;;;;;12.02;96.24;100520.84;5135775;27;20039;-74
2021/05/25 03:21:22;;;;;;;19.55;13.60;;;;;;;11.97;96.98;100523.09;5135748;27;20035;-74
2021/05/25 03:24:27;;;;;;;25.80;14.50;;;;;;;11.87;97.47;100516.84;5135647;27;20390;-74
2021/05/25 03:27:31;;;;;;;17.77;13.95;;;;;;;11.81;97.87;100517.41;5135552;27;20043;-75
2021/05/25 03:30:39;;;;;;;16.73;13.68;;;;;;;11.75;98.13;100513.41;5134300;27;20334;-74
2021/05/25 03:33:43;;;;;;;18.85;14.15;;;;;;;11.71;98.40;100516.53;5134581;27;20039;-75
2021/05/25 03:36:48;;;;;;;24.73;14.90;;;;;;;11.67;98.48;100523.13;5135354;27;20046;-75
2021/05/25 03:39:53;;;;;;;22.30;15.13;;;;;;;11.68;98.45;100520.34;5135261;27;20039;-75
2021/05/25 03:42:57;;;;;;;17.50;13.90;;;;;;;11.65;98.38;100522.44;5135605;27;20035;-78
2021/05/25 03:46:01;;;;;;;17.23;14.90;;;;;;;11.63;98.73;100525.25;5135251;27;20039;-75
2021/05/25 03:49:05;;;;;;;23.80;15.02;;;;;;;11.63;98.73;100524.38;5135192;27;20374;-74
2021/05/25 03:52:10;;;;;;;20.85;13.70;;;;;;;11.69;98.67;100524.75;5122770;27;20047;-74
2021/05/25 03:55:36;;;;;;;18.50;14.27;;;;;;;11.72;98.54;100521.78;5134821;27;20047;-75
2021/05/25 03:58:50;;;;;;;17.45;13.65;;;;;;;11.75;98.43;100531.41;5134947;27;20091;-74
2021/05/25 04:01:54;;;;;;;17.20;13.50;;;;;;;11.72;97.96;100526.31;5122239;27;20035;-73
2021/05/25 04:04:58;;;;;;;21.75;13.18;;;;;;;11.72;97.84;100526.31;5134703;27;20039;-74
2021/05/25 04:08:03;;;;;;;19.65;12.95;;;;;;;11.67;97.85;100512.38;5134780;27;20043;-73
2021/05/25 04:11:08;;;;;;;17.80;13.25;;;;;;;11.66;97.97;100503.47;5122262;27;20470;-74
2021/05/25 04:14:13;;;;;;;18.67;12.40;;;;;;;11.74;97.95;100511.72;5122430;28;20382;-73
2021/05/25 04:17:17;;;;;;;16.15;12.35;;;;;;;11.81;97.51;100517.41;5134815;28;20035;-74
2021/05/25 04:20:23;;;;;;;19.17;12.40;;;;;;;11.81;97.47;100521.91;5134383;28;20390;-73
2021/05/25 04:23:27;;;;;;;15.15;11.93;;;;;;;11.90;96.88;100531.88;5122321;27;20039;-75
2021/05/25 04:26:32;;;;;;;17.15;12.13;;;;;;;12.18;97.23;100529.19;5149117;27;20038;-76
2021/05/25 04:29:36;;;;;;;16.15;11.18;;;;;;;12.66;96.30;100528.34;5146709;27;20424;-76
2021/05/25 04:32:40;;;;;;;14.57;9.27;;;;;;;13.11;93.41;100518.63;5142493;27;20398;-76
2021/05/25 04:35:45;;;;;;;13.07;8.45;;;;;;;13.53;90.25;100513.63;5126432;27;20473;-75
2021/05/25 04:38:50;;;;;;;11.48;8.23;;;;;;;14.19;86.93;100520.47;5138864;27;20378;-73
2021/05/25 04:41:54;;;;;;;8.65;7.03;;;;;;;14.86;83.81;100521.75;5138905;27;20050;-74
2021/05/25 04:44:58;;;;;;;8.25;6.93;;;;;;;15.27;80.88;100520.13;5138566;27;20057;-76
2021/05/25 04:48:03;;;;;;;10.93;7.20;;;;;;;15.30;79.58;100527.94;5138801;27;20042;-74
2021/05/25 04:51:07;;;;;;;9.02;6.43;;;;;;;15.40;79.56;100528.69;5125777;27;20050;-74
2021/05/25 04:54:11;;;;;;;8.80;7.30;;;;;;;15.52;78.80;100514.75;5138530;27;20054;-74
2021/05/25 04:57:16;;;;;;;8.70;6.63;;;;;;;15.69;78.26;100512.09;5125959;27;20050;-74
2021/05/25 05:00:24;;;;;;;19.02;16.20;;;;;;;15.98;77.41;100502.53;5138474;27;20467;-76
2021/05/25 05:03:28;;;;;;;48.72;43.03;;;;;;;16.28;76.50;100510.03;5138512;27;20051;-74
2021/05/25 05:06:33;;;;;;;12.02;7.93;;;;;;;16.67;75.28;100507.53;5138227;27;20473;-74
2021/05/25 05:09:37;;;;;;;8.20;6.22;;;;;;;16.92;74.56;100508.38;5125943;27;20046;-76
2021/05/25 05:12:42;;;;;;;10.93;6.78;;;;;;;17.49;72.53;100522.66;5138337;27;20389;-77
2021/05/25 05:15:47;;;;;;;9.07;6.63;;;;;;;17.99;70.63;100519.59;5138331;27;20054;-76
2021/05/25 05:18:52;;;;;;;9.10;6.22;;;;;;;18.52;68.83;100521.44;5137983;27;20050;-76
2021/05/25 05:21:56;;;;;;;11.70;5.72;;;;;;;19.14;67.04;100516.66;5138018;27;20113;-76
2021/05/25 05:25:02;;;;;;;10.68;5.95;;;;;;;19.49;66.10;100521.41;5125059;27;20070;-76
2021/05/25 05:28:06;;;;;;;10.45;6.68;;;;;;;19.75;64.81;100519.03;5137824;27;20050;-77
2021/05/25 05:31:11;;;;;;;11.23;6.47;;;;;;;20.16;63.89;100513.88;5125218;27;20046;-77
2021/05/25 05:34:15;;;;;;;10.90;5.97;;;;;;;21.05;61.38;100517.91;5137741;27;20062;-77
2021/05/25 05:37:20;;;;;;;8.70;5.20;;;;;;;21.54;60.08;100531.50;5124642;27;20054;-74
2021/05/25 05:40:25;;;;;;;9.45;4.82;;;;;;;22.20;57.77;100539.00;5138064;27;20042;-76
2021/05/25 05:43:31;;;;;;;8.00;5.00;;;;;;;24.13;52.90;100532.22;5137661;27;20058;-75
2021/05/25 05:46:40;;;;;;;9.25;5.55;;;;;;;25.58;48.25;100530.09;5137453;27;20488;-81
2021/05/25 05:49:45;;;;;;;9.50;5.25;;;;;;;26.45;45.12;100537.94;5137472;27;20042;-79
2021/05/25 05:52:50;;;;;;;12.50;5.07;;;;;;;27.76;43.19;100544.03;5124367;27;20500;-74
2021/05/25 05:55:55;;;;;;;9.10;4.45;;;;;;;27.91;42.47;100549.03;5136390;27;20050;-74
2021/05/25 05:58:59;;;;;;;9.32;3.97;;;;;;;28.26;41.72;100547.06;5136872;27;20054;-74
2021/05/25 06:02:04;;;;;;;7.10;4.32;;;;;;;27.98;42.51;100564.38;5136606;27;20093;-75
2021/05/25 06:05:09;;;;;;;5.00;3.42;;;;;;;28.41;40.91;100563.09;5125108;27;20054;-76
2021/05/25 06:08:17;;;;;;;5.20;3.42;;;;;;;28.82;40.20;100573.88;5137037;27;20488;-74
2021/05/25 06:11:22;;;;;;;6.55;3.30;;;;;;;29.02;39.60;100574.25;5144176;27;20053;-74
2021/05/25 06:14:26;;;;;;;4.80;2.63;;;;;;;29.82;37.61;100577.53;5144016;27;20061;-74
2021/05/25 06:17:33;;;;;;;3.63;2.05;;;;;;;29.37;37.34;100582.31;5136881;27;20050;-73
2021/05/25 06:20:38;;;;;;;2.67;1.80;;;;;;;31.07;35.30;100579.31;5136821;27;20054;-73
2021/05/25 06:23:42;;;;;;;3.67;2.00;;;;;;;31.96;33.90;100586.69;5127287;27;20394;-74
2021/05/25 06:26:47;;;;;;;5.15;2.72;;;;;;;31.61;33.86;100585.59;5149578;27;20401;-75
2021/05/25 06:29:52;;;;;;;3.03;1.67;;;;;;;32.12;33.43;100591.22;5135998;27;20397;-78
2021/05/25 06:32:56;;;;;;;3.78;2.03;;;;;;;31.38;34.42;100597.91;5154550;27;20056;-75
2021/05/25 06:36:01;;;;;;;2.80;1.83;;;;;;;30.74;35.16;100596.97;5165602;27;20045;-74
2021/05/25 06:39:06;;;;;;;8.00;2.13;;;;;;;31.89;34.09;100591.66;5165055;27;20050;-74
2021/05/25 06:42:11;;;;;;;3.28;2.00;;;;;;;32.66;32.27;100599.28;5164745;27;20057;-75
2021/05/25 06:45:17;;;;;;;4.45;1.95;;;;;;;34.91;29.09;100599.22;5177934;27;20073;-75
2021/05/25 06:48:21;;;;;;;2.65;2.00;;;;;;;35.05;28.45;100603.06;5153718;27;20065;-74
2021/05/25 06:51:26;;;;;;;3.17;1.80;;;;;;;36.61;26.37;100605.44;5156594;27;20042;-78
2021/05/25 06:54:32;;;;;;;2.78;2.20;;;;;;;35.66;27.22;100600.63;5151292;27;20046;-75
2021/05/25 06:57:36;;;;;;;2.78;1.95;;;;;;;37.35;25.50;100613.84;5146102;27;20057;-74
2021/05/25 07:00:41;;;;;;;3.17;2.08;;;;;;;37.91;24.84;100601.69;5141178;27;20507;-74
2021/05/25 07:03:45;;;;;;;4.55;2.28;;;;;;;36.29;26.49;100611.72;5135874;27;20062;-76
2021/05/25 07:06:50;;;;;;;3.63;2.20;;;;;;;36.37;26.88;100611.88;5154155;27;20062;-74
2021/05/25 07:09:54;;;;;;;3.13;2.10;;;;;;;36.48;26.55;100615.41;5135353;27;20046;-75
2021/05/25 07:12:58;;;;;;;3.40;1.88;;;;;;;36.70;26.34;100612.03;5135756;27;20062;-75
2021/05/25 07:16:03;;;;;;;5.00;1.70;;;;;;;38.05;24.39;100606.16;5135022;27;20492;-75
2021/05/25 07:19:16;;;;;;;3.67;2.00;;;;;;;38.77;24.27;100609.19;5135265;27;20050;-75
2021/05/25 07:22:21;;;;;;;5.03;1.92;;;;;;;40.43;22.44;100610.50;5134976;27;20500;-74
2021/05/25 07:25:27;;;;;;;5.13;2.05;;;;;;;40.27;22.18;100615.72;5122482;27;20046;-75
2021/05/25 07:28:32;;;;;;;3.95;1.90;;;;;;;40.12;22.29;100613.34;5134754;27;20390;-75
2021/05/25 07:31:36;;;;;;;4.05;2.13;;;;;;;41.03;21.71;100621.94;5135001;27;20054;-75
2021/05/25 07:34:41;;;;;;;3.92;2.15;;;;;;;39.60;23.30;100614.22;5134620;27;20062;-75
2021/05/25 07:37:45;;;;;;;4.63;2.25;;;;;;;39.49;23.13;100609.97;5145615;27;20045;-75
2021/05/25 07:40:50;;;;;;;3.10;1.98;;;;;;;41.36;21.64;100609.00;5142413;27;20058;-75
2021/05/25 07:43:54;;;;;;;3.95;2.63;;;;;;;42.60;20.61;100617.25;5155204;27;20496;-75
2021/05/25 07:47:00;;;;;;;3.58;2.10;;;;;;;37.08;25.95;100630.53;5170121;27;20053;-76
2021/05/25 07:50:14;;;;;;;4.30;2.40;;;;;;;36.72;25.79;100620.94;5173271;27;20045;-75
2021/05/25 07:53:19;;;;;;;6.25;2.70;;;;;;;40.24;23.00;100610.78;5142392;27;20054;-75
2021/05/25 07:56:24;;;;;;;6.32;2.30;;;;;;;38.72;24.09;100615.72;5113072;28;20058;-75
2021/05/25 07:59:28;;;;;;;4.35;2.53;;;;;;;35.11;28.95;100615.84;5112696;28;20046;-75
2021/05/25 08:02:32;;;;;;;4.80;2.90;;;;;;;32.01;32.74;100624.78;5113963;28;20047;-74
2021/05/25 08:05:37;;;;;;;5.07;3.25;;;;;;;29.26;37.18;100628.34;5113363;28;20407;-74
2021/05/25 08:08:41;;;;;;;7.05;3.50;;;;;;;27.25;41.44;100635.72;5113710;28;20046;-75
2021/05/25 08:11:45;;;;;;;7.53;3.33;;;;;;;28.19;38.82;100640.25;5114020;28;20046;-74
2021/05/25 08:14:52;;;;;;;5.32;3.55;;;;;;;27.65;40.67;100633.19;5113739;28;20058;-74
2021/05/25 08:21:20;;;;;;;5.45;3.15;;;;;;;27.30;40.75;100635.84;5113525;28;20050;-74
2021/05/25 08:24:24;;;;;;;5.68;3.67;;;;;;;27.70;40.65;100638.81;5113683;28;20050;-74
2021/05/25 08:27:29;;;;;;;4.25;2.90;;;;;;;27.67;40.75;100636.53;5113849;28;20406;-74
2021/05/25 08:30:38;;;;;;;5.57;3.70;;;;;;;27.10;41.77;100638.09;5112735;28;20054;-74
2021/05/25 08:33:42;;;;;;;6.82;3.40;;;;;;;26.49;44.11;100635.53;5113823;28;20051;-74
2021/05/25 08:36:46;;;;;;;4.75;3.47;;;;;;;25.81;45.91;100634.78;5112675;28;20055;-73
2021/05/25 08:39:51;;;;;;;4.97;3.28;;;;;;;25.46;45.67;100636.38;5113695;28;20501;-74
2021/05/25 08:42:56;;;;;;;7.57;3.75;;;;;;;24.33;49.79;100638.09;5112595;28;20097;-74
2021/05/25 08:46:00;;;;;;;4.72;3.30;;;;;;;24.29;49.17;100638.75;5113627;28;20113;-73
2021/05/25 08:49:11;;;;;;;5.35;3.20;;;;;;;24.51;49.45;100632.75;5113479;28;20050;-73
2021/05/25 08:52:17;;;;;;;6.22;3.30;;;;;;;24.37;49.67;100642.06;5123895;28;20047;-77
2021/05/25 08:55:22;;;;;;;6.18;2.95;;;;;;;24.76;49.88;100631.97;5136738;27;20053;-75
2021/05/25 08:58:26;;;;;;;7.70;3.42;;;;;;;24.41;49.45;100631.50;5150249;27;20054;-75
2021/05/25 09:01:31;;;;;;;5.38;3.33;;;;;;;24.37;50.19;100639.31;5141930;27;20046;-77
2021/05/25 09:05:15;;;;;;;8.93;3.60;;;;;;;24.45;49.65;100630.00;5121763;28;20066;-76
2021/05/25 09:08:20;;;;;;;4.28;3.22;;;;;;;24.11;50.70;100627.59;5133908;28;20397;-75
2021/05/25 09:11:25;;;;;;;10.82;3.83;;;;;;;23.75;52.10;100631.66;5137511;27;20401;-75
2021/05/25 09:14:32;;;;;;;7.38;4.28;;;;;;;23.74;52.43;100638.22;5125100;27;20046;-74
2021/05/25 09:17:37;;;;;;;6.00;3.50;;;;;;;23.58;52.63;100633.16;5137818;27;20038;-74
2021/05/25 09:20:53;;;;;;;6.82;3.58;;;;;;;23.60;52.89;100625.56;5137543;27;20046;-74
2021/05/25 09:23:58;;;;;;;10.60;6.88;;;;;;;23.57;53.77;100633.38;5125019;27;20038;-74
2021/05/25 09:27:03;;;;;;;6.75;3.70;;;;;;;23.91;52.67;100642.19;5137143;27;20046;-73
2021/05/25 09:30:15;;;;;;;8.65;3.67;;;;;;;23.82;51.83;100640.75;5137467;27;20398;-74
2021/05/25 09:33:21;;;;;;;5.88;3.20;;;;;;;23.75;52.41;100639.88;5136887;27;20513;-73
2021/05/25 09:36:25;;;;;;;8.13;3.22;;;;;;;23.85;52.69;100636.69;5137164;27;20050;-74
2021/05/25 09:39:32;;;;;;;5.25;3.10;;;;;;;23.75;53.69;100637.13;5124340;27;20054;-74
2021/05/25 09:42:37;;;;;;;9.07;4.07;;;;;;;23.47;54.27;100630.22;5136912;27;20046;-75
2021/05/25 09:45:54;;;;;;;4.80;3.15;;;;;;;23.68;54.65;100639.06;5124620;27;20051;-75
2021/05/25 09:48:58;;;;;;;6.03;2.70;;;;;;;24.03;54.29;100636.88;5124516;27;20054;-75
2021/05/25 09:52:12;;;;;;;7.28;2.63;;;;;;;24.35;52.06;100635.13;5137057;27;20050;-76
2021/05/25 09:55:16;;;;;;;6.60;3.17;;;;;;;24.34;52.55;100634.25;5136357;27;20054;-75
2021/05/25 09:58:33;;;;;;;8.07;3.38;;;;;;;24.08;52.48;100630.78;5136616;27;20390;-74
2021/05/25 10:01:38;;;;;;;9.60;3.28;;;;;;;24.04;52.95;100629.50;5136845;27;20112;-74
2021/05/25 10:05:02;;;;;;;8.02;3.30;;;;;;;23.41;54.52;100625.56;5139068;27;20062;-73
2021/05/25 10:08:06;;;;;;;;;;;;;;;23.13;55.71;100632.06;5145203;27;20046;-74
2021/05/25 10:11:14;;;;;;;8.27;3.55;;;;;;;23.34;54.81;100633.78;5136258;27;19916;-75
2021/05/25 10:14:19;;;;;;;7.88;2.70;;;;;;;23.62;54.62;100628.97;5136597;27;20129;-77
2021/05/25 10:17:46;;;;;;;6.28;3.25;;;;;;;23.77;53.21;100626.84;5151683;27;20496;-74
2021/05/25 10:20:51;;;;;;;5.80;3.08;;;;;;;23.81;54.32;100625.34;5160941;27;20049;-74
2021/05/25 10:23:57;;;;;;;6.40;3.65;;;;;;;23.69;53.79;100632.53;5177876;27;20119;-74
2021/05/25 10:27:01;;;;;;;7.40;3.00;;;;;;;23.65;53.22;100633.16;5157511;27;20053;-74
2021/05/25 10:30:26;;;;;;;6.82;3.60;;;;;;;23.40;52.47;100629.38;5156693;27;20233;-73
2021/05/25 10:33:31;;;;;;;5.93;3.10;;;;;;;23.55;53.36;100632.75;5152728;27;20382;-75
2021/05/25 10:36:55;;;;;;;9.27;3.22;;;;;;;23.69;51.48;100624.31;5136304;27;20058;-73
2021/05/25 10:39:59;;;;;;;5.55;2.90;;;;;;;23.44;52.64;100625.16;5136026;27;20046;-74
2021/05/25 10:43:34;;;;;;;6.03;3.40;;;;;;;23.32;52.58;100633.16;5123481;27;20493;-74
2021/05/25 10:46:38;;;;;;;7.30;2.90;;;;;;;23.40;53.88;100623.91;5135884;27;20042;-74
2021/05/25 10:49:57;;;;;;;6.38;3.50;;;;;;;23.41;53.28;100626.44;5135712;27;20058;-75
2021/05/25 10:53:04;;;;;;;6.00;2.80;;;;;;;23.61;52.06;100626.41;5123307;27;20394;-76
2021/05/25 10:56:27;;;;;;;7.93;3.60;;;;;;;23.63;52.08;100627.03;5135268;27;20062;-74
2021/05/25 11:00:26;;;;;;;6.78;3.20;;;;;;;23.40;52.05;100624.75;5123256;27;20051;-75
2021/05/25 11:03:30;;;;;;;7.68;3.67;;;;;;;23.26;52.79;100629.34;5009886;28;20144;-75
2021/05/25 11:06:35;;;;;;;7.13;3.60;;;;;;;23.24;53.42;100630.59;5032526;28;20072;-75
2021/05/25 11:09:39;;;;;;;7.32;2.78;;;;;;;23.38;53.68;100643.28;5018258;28;20053;-75
2021/05/25 11:13:16;;;;;;;8.20;3.00;;;;;;;23.53;53.24;100638.44;5019890;28;20056;-74
2021/05/25 11:16:31;;;;;;;8.25;2.90;;;;;;;23.67;52.33;100629.16;5019020;28;20060;-76
2021/05/25 11:19:45;;;;;;;7.20;3.10;;;;;;;23.60;53.29;100624.75;5032107;28;20141;-76
2021/05/25 11:22:49;;;;;;;7.93;2.80;;;;;;;23.69;52.97;100629.78;5032024;28;20149;-76
2021/05/25 11:25:53;;;;;;;7.88;2.60;;;;;;;23.77;53.19;100632.31;5032129;28;20068;-77
2021/05/25 11:29:16;;;;;;;7.55;2.80;;;;;;;23.76;53.16;100635.25;5031941;28;20057;-76
2021/05/25 11:32:22;;;;;;;9.50;3.03;;;;;;;23.55;53.48;100638.25;5032025;28;20145;-77
2021/05/25 11:35:29;;;;;;;9.57;3.55;;;;;;;23.37;54.48;100635.28;5031240;28;20045;-76
2021/05/25 11:38:33;;;;;;;9.23;3.35;;;;;;;23.20;55.34;100640.31;5093819;27;20041;-77
2021/05/25 11:41:38;;;;;;;8.43;2.63;;;;;;;23.37;55.47;100646.25;5143689;27;20038;-75
2021/05/25 11:44:45;;;;;;;8.00;3.13;;;;;;;23.38;55.89;100637.78;5127147;27;20042;-80
2021/05/25 11:47:59;;;;;;;10.80;3.35;;;;;;;23.46;57.05;100629.38;5133940;27;20042;-79
2021/05/25 11:51:13;;;;;;;;;;;;;;;23.12;55.96;100624.91;5134094;27;20050;-78
2021/05/25 11:54:20;;;;;;;8.98;2.35;;;;;;;23.17;56.52;100636.09;5149300;27;19915;-78
2021/05/25 11:57:33;;;;;;;5.65;2.58;;;;;;;22.96;57.57;100646.38;5093941;28;20421;-81
2021/05/25 12:00:38;;;;;;;;;;;;;;;22.52;59.80;100642.22;5093464;28;20063;-79
2021/05/25 12:03:43;;;;;;;7.43;2.45;;;;;;;22.40;61.26;100652.06;5098690;28;19920;-80
2021/05/25 12:06:50;;;;;;;7.30;2.63;;;;;;;22.35;60.87;100654.56;5092511;28;20043;-80
2021/05/25 12:09:59;;;;;;;8.15;2.72;;;;;;;22.13;62.24;100666.66;5093789;28;20066;-80
2021/05/25 12:13:13;;;;;;;8.50;3.22;;;;;;;22.12;63.03;100658.66;5108507;28;20509;-79
2021/05/25 12:16:18;;;;;;;8.60;3.13;;;;;;;22.02;64.89;100659.03;5093731;28;20051;-80
2021/05/25 12:19:23;;;;;;;11.55;3.80;;;;;;;22.04;64.66;100656.94;5113873;28;20067;-81
2021/05/25 12:22:35;;;;;;;8.38;4.70;;;;;;;22.19;65.21;100657.66;5093324;28;20043;-79
2021/05/25 12:25:54;;;;;;;8.17;3.10;;;;;;;22.36;62.97;100653.53;5092629;28;20047;-79
2021/05/25 12:28:59;;;;;;;5.53;2.50;;;;;;;22.72;61.19;100646.94;5093764;28;20043;-80
2021/05/25 12:32:09;;;;;;;7.65;2.38;;;;;;;22.92;51.95;100648.69;5092602;28;20047;-79
2021/05/25 12:35:14;;;;;;;3.58;1.65;;;;;;;23.14;52.82;100641.13;5103906;28;20051;-79
2021/05/25 12:38:21;;;;;;;8.10;1.33;;;;;;;23.39;52.12;100639.50;5099204;28;20055;-79
2021/05/25 12:41:25;;;;;;;8.32;2.45;;;;;;;23.67;52.26;100634.66;5093151;28;20510;-80
2021/05/25 12:44:32;;;;;;;4.72;2.10;;;;;;;24.04;51.15;100632.25;5109733;28;20054;-76
2021/05/25 12:47:58;;;;;;;5.40;1.98;;;;;;;24.33;50.41;100639.97;5117204;28;20050;-77
2021/05/25 12:51:03;;;;;;;3.45;1.67;;;;;;;24.54;46.46;100628.72;5113995;28;20043;-77
2021/05/25 12:54:17;;;;;;;4.07;1.80;;;;;;;24.70;45.01;100627.34;5116936;28;20039;-79
2021/05/25 12:57:25;;;;;;;5.63;1.50;;;;;;;24.72;45.73;100626.06;5116171;28;20058;-78
2021/05/25 13:00:32;;;;;;;4.97;1.55;;;;;;;24.60;45.01;100625.09;5117108;28;20051;-80
2021/05/25 13:03:37;;;;;;;3.67;1.35;;;;;;;24.39;44.15;100628.16;5100303;28;20047;-79
2021/05/25 13:07:00;;;;;;;5.45;1.67;;;;;;;24.11;42.42;100633.94;5100939;28;20506;-79
2021/05/25 13:10:24;;;;;;;6.00;1.85;;;;;;;23.82;42.35;100632.50;5096926;28;20387;-79
2021/05/25 13:13:41;;;;;;;2.70;1.20;;;;;;;23.78;43.28;100627.66;5096735;28;20505;-77
2021/05/25 13:16:56;;;;;;;6.78;1.60;;;;;;;23.63;43.26;100625.16;5096742;28;20039;-79
2021/05/25 13:20:00;;;;;;;3.78;1.20;;;;;;;23.56;44.99;100629.78;5116095;28;20117;-78
2021/05/25 13:23:24;;;;;;;5.55;1.48;;;;;;;23.47;45.31;100620.09;5117108;28;20382;-80
2021/05/25 13:26:40;;;;;;;;;;;;;;;23.42;45.60;100619.91;5117129;28;20054;-77
2021/05/25 13:30:04;;;;;;;3.75;1.20;;;;;;;23.50;46.14;100625.19;5115928;28;19915;-77
2021/05/25 13:33:08;;;;;;;4.72;1.33;;;;;;;23.55;45.15;100622.66;5111213;28;20497;-79
2021/05/25 13:36:13;;;;;;;5.60;1.67;;;;;;;23.54;42.48;100612.72;5096292;28;20054;-77
2021/05/25 13:39:19;;;;;;;3.70;1.10;;;;;;;23.66;41.93;100619.25;5096588;28;20047;-78
2021/05/25 13:42:24;;;;;;;5.10;1.15;;;;;;;23.69;41.69;100620.72;5095382;28;20047;-79
2021/05/25 13:45:28;;;;;;;4.18;1.30;;;;;;;23.75;41.50;100609.72;5096224;28;20051;-78
2021/05/25 13:48:33;;;;;;;3.90;1.30;;;;;;;23.78;39.58;100603.81;5105622;28;20509;-77
2021/05/25 13:51:38;;;;;;;5.63;1.85;;;;;;;23.74;40.32;100616.28;5116439;28;20121;-78
2021/05/25 13:54:42;;;;;;;3.28;1.02;;;;;;;23.79;40.04;100612.91;5121531;27;20062;-79
2021/05/25 13:57:48;;;;;;;2.72;1.00;;;;;;;23.79;38.23;100613.75;5143700;27;20050;-78
2021/05/25 14:01:08;;;;;;;2.47;1.10;;;;;;;23.79;37.97;100612.91;5157614;27;20053;-78
2021/05/25 14:04:15;;;;;;;5.78;1.20;;;;;;;23.78;38.28;100606.56;5157390;27;20049;-80
2021/05/25 14:07:19;;;;;;;3.33;1.10;;;;;;;23.69;35.94;100612.50;5157064;27;20058;-77
2021/05/25 14:10:25;;;;;;;3.53;1.08;;;;;;;23.71;36.60;100611.22;5157007;27;20504;-77
2021/05/25 14:13:31;;;;;;;4.13;0.70;;;;;;;23.72;37.47;100615.66;5144177;27;20057;-77
2021/05/25 14:16:36;;;;;;;3.00;1.10;;;;;;;23.70;36.86;100604.03;5157182;27;20374;-80
2021/05/25 14:19:40;;;;;;;3.30;1.02;;;;;;;23.72;35.62;100610.19;5157169;27;20058;-77
2021/05/25 14:22:44;;;;;;;3.47;0.75;;;;;;;23.74;35.42;100609.94;5144029;27;20583;-77
2021/05/25 14:25:49;;;;;;;3.63;1.10;;;;;;;23.76;35.81;100602.34;5144147;27;20065;-77